createdAt,value
2018-02-21T00:02:24.904Z,79.12
2018-02-21T00:04:51.587Z,68.47
2018-02-21T00:07:18.335Z,66.60
2018-02-21T00:09:44.996Z,66.62
2018-02-21T00:12:11.693Z,70.30
2018-02-21T00:14:38.373Z,68.70
2018-02-21T00:17:05.114Z,73.28
2018-02-21T00:19:31.760Z,74.87
2018-02-21T00:21:58.452Z,74.32
2018-02-21T00:24:25.124Z,67.50
2018-02-21T00:26:51.808Z,69.95
2018-02-21T00:29:19.734Z,67.15
2018-02-21T00:31:46.419Z,70.40
2018-02-21T00:34:13.092Z,73.53
2018-02-21T00:36:39.773Z,82.22
2018-02-21T00:39:06.435Z,64.15
2018-02-21T00:41:33.130Z,61.83
2018-02-21T00:43:59.789Z,67.57
2018-02-21T00:46:26.454Z,70.50
2018-02-21T00:48:53.132Z,63.90
2018-02-21T00:51:19.874Z,61.25
2018-02-21T00:53:47.052Z,62.95
2018-02-21T00:56:13.783Z,58.33
2018-02-21T00:58:40.484Z,64.05
2018-02-21T01:01:07.182Z,65.43
2018-02-21T01:03:33.882Z,58.45
2018-02-21T01:06:00.554Z,55.85
2018-02-21T01:08:27.223Z,66.40
2018-02-21T01:10:53.909Z,59.38
2018-02-21T01:13:20.580Z,62.75
2018-02-21T01:15:47.239Z,54.60
2018-02-21T01:18:13.912Z,61.25
2018-02-21T01:20:40.556Z,66.00
2018-02-21T01:23:07.224Z,55.95
2018-02-21T01:25:33.898Z,60.08
2018-02-21T01:28:00.556Z,62.25
2018-02-21T01:30:27.220Z,58.72
2018-02-21T01:32:53.880Z,55.92
2018-02-21T01:35:20.569Z,57.50
2018-02-21T01:37:47.237Z,64.60
2018-02-21T01:40:13.909Z,68.45
2018-02-21T01:42:40.556Z,56.78
2018-02-21T01:45:07.259Z,57.67
2018-02-21T01:47:33.964Z,63.20
2018-02-21T01:50:00.683Z,56.83
2018-02-21T01:52:27.334Z,64.95
2018-02-21T01:54:54.046Z,59.15
2018-02-21T01:57:20.835Z,65.82
2018-02-21T01:59:47.644Z,66.72
2018-02-21T02:02:14.505Z,60.05
2018-02-21T02:04:41.177Z,57.35
2018-02-21T02:07:07.829Z,65.55
2018-02-21T02:09:34.787Z,67.32
2018-02-21T02:12:01.591Z,67.45
2018-02-21T02:14:28.438Z,68.57
2018-02-21T02:16:55.104Z,64.93
2018-02-21T02:19:21.802Z,61.85
2018-02-21T02:21:48.546Z,61.63
2018-02-21T02:24:15.203Z,60.55
2018-02-21T02:26:41.921Z,61.53
2018-02-21T02:29:08.596Z,64.57
2018-02-21T02:31:35.264Z,71.28
2018-02-21T02:34:01.934Z,64.85
2018-02-21T02:36:28.617Z,63.87
2018-02-21T02:39:01.091Z,58.80
2018-02-21T02:41:27.777Z,65.85
2018-02-21T02:43:54.433Z,62.50
2018-02-21T02:46:21.109Z,56.55
2018-02-21T02:48:47.753Z,65.65
2018-02-21T02:51:14.434Z,58.30
2018-02-21T02:53:41.127Z,62.62
2018-02-21T02:56:07.823Z,57.40
2018-02-21T02:58:34.480Z,61.78
2018-02-21T03:01:01.139Z,53.30
2018-02-21T03:03:27.789Z,58.65
2018-02-21T03:05:54.478Z,61.67
2018-02-21T03:08:21.133Z,56.00
2018-02-21T03:10:47.817Z,58.00
2018-02-21T03:13:14.487Z,52.30
2018-02-21T03:15:41.199Z,58.25
2018-02-21T03:18:07.884Z,60.90
2018-02-21T03:20:34.580Z,51.25
2018-02-21T03:23:01.260Z,50.72
2018-02-21T03:25:27.929Z,55.53
2018-02-21T03:27:54.611Z,56.90
2018-02-21T03:30:21.273Z,50.30
2018-02-21T03:32:47.968Z,54.30
2018-02-21T03:35:14.645Z,51.37
2018-02-21T03:37:41.322Z,52.70
2018-02-21T03:40:08.009Z,55.10
2018-02-21T03:42:34.698Z,50.25
2018-02-21T03:45:01.357Z,58.80
2018-02-21T03:47:28.017Z,51.08
2018-02-21T03:49:54.677Z,56.58
2018-02-21T03:52:21.354Z,50.53
2018-02-21T03:54:48.009Z,49.42
2018-02-21T03:57:14.679Z,66.07
2018-02-21T03:59:41.329Z,48.17
2018-02-21T04:02:08.029Z,53.78
2018-02-21T04:04:34.679Z,54.25
2018-02-21T04:07:01.361Z,60.05
2018-02-21T04:09:28.006Z,55.63
2018-02-21T04:11:54.677Z,55.00
2018-02-21T04:14:22.037Z,55.42
2018-02-21T04:16:48.704Z,51.63
2018-02-21T04:19:15.383Z,51.53
2018-02-21T04:21:42.040Z,54.90
2018-02-21T04:24:08.720Z,59.67
2018-02-21T04:26:35.369Z,52.03
2018-02-21T04:29:02.054Z,49.92
2018-02-21T04:31:28.735Z,46.05
2018-02-21T04:33:55.408Z,55.25
2018-02-21T04:36:22.052Z,52.78
2018-02-21T04:38:48.729Z,57.70
2018-02-21T04:41:15.393Z,54.38
2018-02-21T04:43:42.072Z,53.85
2018-02-21T04:46:08.724Z,51.25
2018-02-21T04:48:35.438Z,52.35
2018-02-21T04:51:02.101Z,46.58
2018-02-21T04:53:28.779Z,54.50
2018-02-21T04:56:01.282Z,52.53
2018-02-21T04:58:44.646Z,62.72
2018-02-21T05:01:11.308Z,62.08
2018-02-21T05:03:37.980Z,50.00
2018-02-21T05:06:04.644Z,68.78
2018-02-21T05:08:31.295Z,59.05
2018-02-21T05:10:57.957Z,55.80
2018-02-21T05:13:24.608Z,51.20
2018-02-21T05:15:51.275Z,53.87
2018-02-21T05:18:17.938Z,53.85
2018-02-21T05:20:44.606Z,47.80
2018-02-21T05:23:11.251Z,51.40
2018-02-21T05:25:37.921Z,51.95
2018-02-21T05:28:04.582Z,51.35
2018-02-21T05:30:31.301Z,53.80
2018-02-21T05:32:57.956Z,46.33
2018-02-21T05:35:24.632Z,51.63
2018-02-21T05:37:51.293Z,50.38
2018-02-21T05:40:17.984Z,43.00
2018-02-21T05:42:44.648Z,47.40
2018-02-21T05:45:11.340Z,49.30
2018-02-21T05:47:37.996Z,52.72
2018-02-21T05:50:04.695Z,51.30
2018-02-21T05:52:31.356Z,49.25
2018-02-21T05:54:58.010Z,53.22
2018-02-21T05:57:24.685Z,55.88
2018-02-21T05:59:51.359Z,53.97
2018-02-21T06:02:18.023Z,54.20
2018-02-21T06:04:44.690Z,56.45
2018-02-21T06:07:11.371Z,52.92
2018-02-21T06:09:38.025Z,53.78
2018-02-21T06:12:04.705Z,59.13
2018-02-21T06:14:31.360Z,53.90
2018-02-21T06:16:58.080Z,53.40
2018-02-21T06:19:24.775Z,51.97
2018-02-21T06:21:51.447Z,46.92
2018-02-21T06:24:18.097Z,46.00
2018-02-21T06:26:44.768Z,45.60
2018-02-21T06:29:11.445Z,51.08
2018-02-21T06:31:38.122Z,46.58
2018-02-21T06:34:04.784Z,48.60
2018-02-21T06:36:31.459Z,47.03
2018-02-21T06:38:58.180Z,59.35
2018-02-21T06:41:24.796Z,50.17
2018-02-21T06:43:51.498Z,50.30
2018-02-21T06:46:18.162Z,51.17
2018-02-21T06:48:44.827Z,48.30
2018-02-21T06:51:11.498Z,49.38
2018-02-21T06:53:38.167Z,46.70
2018-02-21T06:56:04.835Z,53.67
2018-02-21T06:58:31.516Z,59.00
2018-02-21T07:00:58.178Z,52.45
2018-02-21T07:03:24.861Z,52.10
2018-02-21T07:05:51.534Z,57.33
2018-02-21T07:08:18.204Z,51.90
2018-02-21T07:10:44.844Z,58.17
2018-02-21T07:13:11.518Z,63.67
2018-02-21T07:15:38.198Z,58.85
2018-02-21T07:18:04.858Z,54.40
2018-02-21T07:20:31.500Z,61.70
2018-02-21T07:22:59.008Z,55.25
2018-02-21T07:25:25.670Z,52.85
2018-02-21T07:27:52.357Z,54.33
2018-02-21T07:30:19.025Z,56.65
2018-02-21T07:32:45.718Z,57.10
2018-02-21T07:35:12.392Z,58.58
2018-02-21T07:37:39.040Z,55.22
2018-02-21T07:40:05.718Z,46.22
2018-02-21T07:42:32.364Z,53.30
2018-02-21T07:44:59.058Z,51.65
2018-02-21T07:47:25.724Z,50.15
2018-02-21T07:49:52.400Z,50.45
2018-02-21T07:52:19.069Z,49.72
2018-02-21T07:54:45.746Z,53.90
2018-02-21T07:57:12.394Z,49.85
2018-02-21T07:59:39.113Z,43.63
2018-02-21T08:02:05.753Z,58.53
2018-02-21T08:04:32.419Z,49.38
2018-02-21T08:06:59.083Z,53.10
2018-02-21T08:09:25.766Z,50.67
2018-02-21T08:11:52.422Z,49.83
2018-02-21T08:14:19.094Z,45.10
2018-02-21T08:16:45.749Z,51.25
2018-02-21T08:19:12.412Z,49.20
2018-02-21T08:21:39.117Z,44.90
2018-02-21T08:24:05.776Z,40.22
2018-02-21T08:26:32.460Z,40.38
2018-02-21T08:28:59.153Z,41.05
2018-02-21T08:31:25.845Z,38.92
2018-02-21T08:33:52.500Z,39.97
2018-02-21T08:36:19.183Z,41.25
2018-02-21T08:38:45.852Z,39.65
2018-02-21T08:41:12.541Z,38.78
2018-02-21T08:43:39.720Z,40.78
2018-02-21T08:46:06.399Z,38.03
2018-02-21T08:48:33.046Z,37.20
2018-02-21T08:50:59.733Z,38.80
2018-02-21T08:53:26.395Z,42.85
2018-02-21T08:55:53.048Z,40.97
2018-02-21T08:58:19.733Z,39.10
2018-02-21T09:00:46.393Z,39.25
2018-02-21T09:03:13.076Z,38.28
2018-02-21T09:05:39.743Z,40.07
2018-02-21T09:08:06.414Z,41.70
2018-02-21T09:10:33.075Z,41.37
2018-02-21T09:12:59.814Z,41.73
2018-02-21T09:15:26.472Z,42.27
2018-02-21T09:17:53.181Z,41.73
2018-02-21T09:20:19.830Z,41.30
2018-02-21T09:22:46.495Z,41.27
2018-02-21T09:25:13.149Z,41.20
2018-02-21T09:27:39.831Z,38.13
2018-02-21T09:30:06.487Z,37.40
2018-02-21T09:32:33.161Z,39.23
2018-02-21T09:34:59.818Z,40.87
2018-02-21T09:37:26.500Z,42.17
2018-02-21T09:39:53.158Z,43.63
2018-02-21T09:42:19.847Z,42.23
2018-02-21T09:44:46.509Z,43.83
2018-02-21T09:47:13.199Z,43.90
2018-02-21T09:49:39.887Z,40.83
2018-02-21T09:52:06.611Z,51.80
2018-02-21T09:54:33.301Z,41.10
2018-02-21T09:56:59.936Z,38.60
2018-02-21T09:59:26.649Z,39.33
2018-02-21T10:01:53.304Z,37.60
2018-02-21T10:04:19.982Z,36.07
2018-02-21T10:06:46.640Z,43.50
2018-02-21T10:09:13.312Z,38.37
2018-02-21T10:11:39.964Z,37.17
2018-02-21T10:14:06.653Z,36.47
2018-02-21T10:16:33.359Z,35.83
2018-02-21T10:19:00.035Z,36.20
2018-02-21T10:21:26.704Z,37.80
2018-02-21T10:23:53.441Z,38.60
2018-02-21T10:26:20.112Z,38.73
2018-02-21T10:28:46.792Z,37.33
2018-02-21T10:31:13.441Z,39.57
2018-02-21T10:33:40.116Z,39.27
2018-02-21T10:36:07.068Z,40.33
2018-02-21T10:38:34.129Z,38.30
2018-02-21T10:41:01.106Z,37.23
2018-02-21T10:43:27.866Z,35.87
2018-02-21T10:45:54.859Z,39.13
2018-02-21T10:48:21.627Z,37.23
2018-02-21T10:50:48.764Z,36.90
2018-02-21T10:53:15.458Z,36.67
2018-02-21T10:55:42.556Z,35.70
2018-02-21T10:58:09.576Z,35.67
2018-02-21T11:00:42.051Z,33.70
2018-02-21T11:03:08.714Z,33.63
2018-02-21T11:05:35.454Z,33.00
2018-02-21T11:08:02.283Z,32.13
2018-02-21T11:10:29.286Z,32.80
2018-02-21T11:12:55.947Z,33.97
2018-02-21T11:15:22.611Z,32.67
2018-02-21T11:17:49.255Z,34.87
2018-02-21T11:20:16.313Z,32.80
2018-02-21T11:22:43.296Z,33.10
2018-02-21T11:25:10.056Z,32.70
2018-02-21T11:27:36.816Z,30.80
2018-02-21T11:30:03.735Z,30.70
2018-02-21T11:32:30.625Z,30.83
2018-02-21T11:34:57.515Z,30.00
2018-02-21T11:37:24.173Z,31.27
2018-02-21T11:39:50.883Z,31.10
2018-02-21T11:42:17.572Z,30.90
2018-02-21T11:44:44.308Z,30.47
2018-02-21T11:47:10.982Z,31.70
2018-02-21T11:49:37.729Z,30.13
2018-02-21T11:52:04.753Z,29.30
2018-02-21T11:54:32.313Z,26.67
2018-02-21T11:56:59.228Z,29.42
2018-02-21T11:59:26.148Z,24.00
2018-02-21T12:01:52.937Z,22.62
2018-02-21T12:04:19.856Z,24.80
2018-02-21T12:06:46.645Z,26.45
2018-02-21T12:09:13.292Z,28.92
2018-02-21T12:11:40.009Z,27.25
2018-02-21T12:14:06.699Z,29.23
2018-02-21T12:16:33.387Z,26.67
2018-02-21T12:19:00.041Z,24.37
2018-02-21T12:21:26.718Z,25.88
2018-02-21T12:23:53.387Z,24.08
2018-02-21T12:26:20.056Z,25.48
2018-02-21T12:28:46.703Z,23.45
2018-02-21T12:31:13.392Z,23.92
2018-02-21T12:33:40.050Z,23.70
2018-02-21T12:36:06.711Z,26.62
2018-02-21T12:38:33.370Z,23.73
2018-02-21T12:41:05.724Z,23.70
2018-02-21T12:43:32.386Z,26.02
2018-02-21T12:45:59.060Z,23.40
2018-02-21T12:48:25.734Z,26.02
2018-02-21T12:50:52.400Z,25.58
2018-02-21T12:53:19.097Z,24.25
2018-02-21T12:55:45.751Z,23.20
2018-02-21T12:58:12.415Z,22.13
2018-02-21T13:00:39.078Z,24.85
2018-02-21T13:03:05.765Z,22.00
2018-02-21T13:05:32.428Z,24.25
2018-02-21T13:07:59.371Z,24.35
2018-02-21T13:10:26.150Z,22.67
2018-02-21T13:12:52.841Z,23.12
2018-02-21T13:15:19.504Z,23.27
2018-02-21T13:17:46.169Z,27.08
2018-02-21T13:20:12.829Z,22.42
2018-02-21T13:22:39.517Z,21.58
2018-02-21T13:25:06.185Z,25.17
2018-02-21T13:27:32.859Z,23.00
2018-02-21T13:29:59.609Z,23.02
2018-02-21T13:32:26.657Z,23.90
2018-02-21T13:34:53.554Z,24.55
2018-02-21T13:37:20.368Z,24.87
2018-02-21T13:39:47.036Z,22.80
2018-02-21T13:42:13.708Z,26.20
2018-02-21T13:44:40.388Z,23.98
2018-02-21T13:47:07.061Z,25.85
2018-02-21T13:49:33.754Z,24.63
2018-02-21T13:52:00.421Z,25.10
2018-02-21T13:54:27.114Z,25.12
2018-02-21T13:56:53.761Z,21.67
2018-02-21T13:59:20.473Z,23.48
2018-02-21T14:01:47.132Z,25.30
2018-02-21T14:04:13.792Z,27.30
2018-02-21T14:06:40.473Z,24.48
2018-02-21T14:09:07.242Z,26.98
2018-02-21T14:11:33.907Z,26.48
2018-02-21T14:14:00.581Z,29.52
2018-02-21T14:16:27.240Z,26.00
2018-02-21T14:18:53.910Z,24.85
2018-02-21T14:21:20.629Z,27.87
2018-02-21T14:23:47.327Z,25.48
2018-02-21T14:26:13.990Z,23.92
2018-02-21T14:28:40.637Z,29.02
2018-02-21T14:31:07.350Z,27.17
2018-02-21T14:33:34.008Z,25.30
2018-02-21T14:36:00.668Z,28.38
2018-02-21T14:38:27.339Z,26.12
2018-02-21T14:40:54.013Z,27.73
2018-02-21T14:43:20.652Z,24.55
2018-02-21T14:45:47.332Z,27.08
2018-02-21T14:48:13.996Z,24.90
2018-02-21T14:50:40.658Z,27.23
2018-02-21T14:53:07.314Z,24.58
2018-02-21T14:55:33.993Z,24.67
2018-02-21T14:58:00.653Z,24.05
2018-02-21T15:00:27.369Z,29.12
2018-02-21T15:02:54.096Z,26.52
2018-02-21T15:05:20.772Z,25.85
2018-02-21T15:07:47.433Z,23.95
2018-02-21T15:10:14.085Z,24.27
2018-02-21T15:12:40.761Z,27.73
2018-02-21T15:15:07.438Z,25.40
2018-02-21T15:17:34.121Z,42.33
2018-02-21T15:20:00.799Z,25.25
2018-02-21T15:22:27.476Z,25.00
2018-02-21T15:24:54.445Z,28.20
2018-02-21T15:27:21.144Z,22.65
2018-02-21T15:29:47.795Z,37.30
2018-02-21T15:32:14.487Z,26.98
2018-02-21T15:34:41.141Z,27.90
2018-02-21T15:37:08.167Z,24.55
2018-02-21T15:39:34.928Z,27.20
2018-02-21T15:42:01.592Z,26.65
2018-02-21T15:44:28.276Z,23.67
2018-02-21T15:46:54.944Z,30.05
2018-02-21T15:49:21.612Z,30.73
2018-02-21T15:51:48.293Z,28.67
2018-02-21T15:54:14.964Z,64.75
2018-02-21T15:56:41.625Z,60.80
2018-02-21T15:59:08.312Z,27.60
2018-02-21T16:01:34.978Z,29.77
2018-02-21T16:04:01.655Z,29.35
2018-02-21T16:06:28.354Z,29.05
2018-02-21T16:08:55.025Z,23.42
2018-02-21T16:11:21.710Z,25.52
2018-02-21T16:13:48.426Z,23.10
2018-02-21T16:16:15.106Z,26.40
2018-02-21T16:18:41.812Z,25.48
2018-02-21T16:21:08.537Z,22.25
2018-02-21T16:23:35.206Z,23.55
2018-02-21T16:26:01.860Z,23.85
2018-02-21T16:28:28.712Z,25.27
2018-02-21T16:30:56.171Z,23.62
2018-02-21T16:33:22.865Z,25.88
2018-02-21T16:35:49.533Z,30.80
2018-02-21T16:38:16.208Z,28.35
2018-02-21T16:40:42.924Z,27.45
2018-02-21T16:43:09.599Z,29.15
2018-02-21T16:45:36.248Z,21.65
2018-02-21T16:48:02.955Z,26.55
2018-02-21T16:50:29.619Z,22.87
2018-02-21T16:52:56.285Z,25.65
2018-02-21T16:55:22.961Z,26.90
2018-02-21T16:57:49.680Z,59.60
2018-02-21T17:00:16.367Z,89.07
2018-02-21T17:02:43.036Z,43.97
2018-02-21T17:05:09.753Z,28.15
2018-02-21T17:07:36.411Z,20.45
2018-02-21T17:10:03.094Z,25.85
2018-02-21T17:12:29.744Z,21.90
2018-02-21T17:14:56.428Z,23.52
2018-02-21T17:17:23.084Z,25.10
2018-02-21T17:19:49.756Z,25.95
2018-02-21T17:22:16.416Z,25.00
2018-02-21T17:24:43.110Z,22.37
2018-02-21T17:27:09.763Z,23.98
2018-02-21T17:29:36.476Z,24.30
2018-02-21T17:32:03.141Z,27.95
2018-02-21T17:34:29.832Z,23.50
2018-02-21T17:36:56.496Z,22.52
2018-02-21T17:39:23.157Z,24.90
2018-02-21T17:41:49.856Z,28.90
2018-02-21T17:44:16.519Z,23.77
2018-02-21T17:46:43.216Z,26.40
2018-02-21T17:49:09.895Z,28.38
2018-02-21T17:51:36.591Z,24.87
2018-02-21T17:54:03.242Z,27.35
2018-02-21T17:56:29.936Z,25.75
2018-02-21T17:58:56.612Z,25.90
2018-02-21T18:01:23.297Z,31.37
2018-02-21T18:03:49.957Z,29.50
2018-02-21T18:06:16.637Z,25.62
2018-02-21T18:08:43.308Z,23.95
2018-02-21T18:11:10.015Z,24.75
2018-02-21T18:13:36.705Z,23.98
2018-02-21T18:16:03.371Z,26.27
2018-02-21T18:18:30.029Z,25.42
2018-02-21T18:20:56.703Z,24.98
2018-02-21T18:23:23.360Z,24.00
2018-02-21T18:25:50.060Z,24.00
2018-02-21T18:28:16.736Z,24.33
2018-02-21T18:30:43.375Z,26.55
2018-02-21T18:33:10.049Z,26.23
2018-02-21T18:35:36.725Z,25.83
2018-02-21T18:38:03.404Z,25.80
2018-02-21T18:40:30.903Z,25.58
2018-02-21T18:42:57.598Z,28.83
2018-02-21T18:45:24.297Z,25.42
2018-02-21T18:47:50.989Z,23.25
2018-02-21T18:50:17.656Z,28.27
2018-02-21T18:52:44.323Z,24.05
2018-02-21T18:55:10.987Z,28.90
2018-02-21T18:57:37.651Z,26.17
2018-02-21T19:00:04.311Z,29.37
2018-02-21T19:02:31.001Z,29.98
2018-02-21T19:04:57.646Z,27.23
2018-02-21T19:07:24.339Z,26.20
2018-02-21T19:09:50.986Z,25.30
2018-02-21T19:12:17.659Z,25.15
2018-02-21T19:14:44.313Z,25.40
2018-02-21T19:17:10.991Z,25.83
2018-02-21T19:19:37.679Z,23.05
2018-02-21T19:22:04.346Z,22.08
2018-02-21T19:24:31.019Z,25.55
2018-02-21T19:26:57.669Z,25.02
2018-02-21T19:29:24.352Z,28.67
2018-02-21T19:31:51.007Z,25.67
2018-02-21T19:34:17.687Z,25.25
2018-02-21T19:36:45.064Z,23.52
2018-02-21T19:39:11.740Z,25.58
2018-02-21T19:41:38.400Z,25.00
2018-02-21T19:44:05.264Z,25.55
2018-02-21T19:46:31.972Z,23.10
2018-02-21T19:48:58.660Z,24.63
2018-02-21T19:51:25.319Z,22.50
2018-02-21T19:53:52.083Z,24.55
2018-02-21T19:56:18.745Z,23.98
2018-02-21T19:58:45.418Z,27.83
2018-02-21T20:01:12.074Z,21.05
2018-02-21T20:03:38.739Z,24.90
2018-02-21T20:06:05.411Z,31.90
2018-02-21T20:08:32.056Z,29.98
2018-02-21T20:10:58.728Z,24.42
2018-02-21T20:13:25.444Z,25.98
2018-02-21T20:15:52.392Z,31.37
2018-02-21T20:18:19.276Z,28.42
2018-02-21T20:20:46.008Z,22.05
2018-02-21T20:23:13.308Z,41.80
2018-02-21T20:25:40.322Z,109.82
2018-02-21T20:28:07.298Z,40.72
2018-02-21T20:30:35.791Z,67.50
2018-02-21T20:33:02.798Z,144.00
2018-02-21T20:35:29.627Z,86.50
2018-02-21T20:37:56.658Z,33.75
2018-02-21T20:40:23.494Z,32.00
2018-02-21T20:42:50.430Z,75.37
2018-02-21T20:45:17.132Z,27.50
2018-02-21T20:47:43.811Z,41.15
2018-02-21T20:50:10.518Z,35.20
2018-02-21T20:52:37.208Z,26.85
2018-02-21T20:55:03.873Z,28.67
2018-02-21T20:57:30.578Z,34.75
2018-02-21T20:59:57.379Z,48.90
2018-02-21T21:02:24.055Z,49.38
2018-02-21T21:04:50.703Z,40.30
2018-02-21T21:07:17.385Z,39.78
2018-02-21T21:09:44.073Z,36.40
2018-02-21T21:12:10.761Z,24.67
2018-02-21T21:14:38.352Z,31.45
2018-02-21T21:17:05.089Z,24.30
2018-02-21T21:19:31.758Z,31.77
2018-02-21T21:21:58.451Z,25.15
2018-02-21T21:24:25.101Z,28.58
2018-02-21T21:26:51.777Z,29.50
2018-02-21T21:29:18.424Z,27.90
2018-02-21T21:31:45.118Z,31.05
2018-02-21T21:34:11.802Z,26.50
2018-02-21T21:36:38.495Z,27.10
2018-02-21T21:39:05.147Z,26.90
2018-02-21T21:41:31.866Z,24.67
2018-02-21T21:43:58.598Z,28.58
2018-02-21T21:46:25.285Z,24.80
2018-02-21T21:48:51.955Z,27.58
2018-02-21T21:51:18.647Z,30.42
2018-02-21T21:53:45.567Z,27.85
2018-02-21T21:56:12.274Z,29.70
2018-02-21T21:58:38.931Z,29.50
2018-02-21T22:01:05.593Z,30.20
2018-02-21T22:03:32.276Z,31.12
2018-02-21T22:05:58.939Z,30.12
2018-02-21T22:08:25.625Z,31.52
2018-02-21T22:10:52.273Z,30.60
2018-02-21T22:13:18.950Z,31.75
2018-02-21T22:15:45.600Z,27.98
2018-02-21T22:18:12.275Z,26.52
2018-02-21T22:20:38.921Z,25.48
2018-02-21T22:23:05.771Z,28.08
2018-02-21T22:25:32.457Z,29.87
2018-02-21T22:27:59.753Z,28.77
2018-02-21T22:30:27.131Z,26.50
2018-02-21T22:32:53.852Z,29.02
2018-02-21T22:35:20.509Z,27.13
2018-02-21T22:37:47.178Z,30.50
2018-02-21T22:40:13.839Z,26.90
2018-02-21T22:42:40.504Z,31.42
2018-02-21T22:45:07.150Z,26.70
2018-02-21T22:47:33.823Z,26.90
2018-02-21T22:50:00.481Z,25.42
2018-02-21T22:52:27.140Z,28.85
2018-02-21T22:54:53.790Z,26.35
2018-02-21T22:57:20.464Z,29.12
2018-02-21T22:59:47.167Z,30.25
2018-02-21T23:02:13.838Z,27.95
2018-02-21T23:04:40.507Z,30.05
2018-02-21T23:07:07.172Z,27.35
2018-02-21T23:09:33.854Z,25.95
2018-02-21T23:12:00.522Z,28.60
2018-02-21T23:14:27.206Z,27.55
2018-02-21T23:16:53.864Z,30.35
2018-02-21T23:19:21.444Z,26.17
2018-02-21T23:21:48.113Z,25.70
2018-02-21T23:24:14.809Z,26.70
2018-02-21T23:26:42.085Z,28.35
2018-02-21T23:29:11.500Z,29.70
2018-02-21T23:31:38.166Z,25.98
2018-02-21T23:34:04.872Z,26.05
2018-02-21T23:36:31.523Z,27.10
2018-02-21T23:38:58.389Z,26.00
2018-02-21T23:41:25.076Z,28.90
2018-02-21T23:43:51.792Z,27.42
2018-02-21T23:46:18.448Z,29.40
2018-02-21T23:48:45.124Z,29.63
2018-02-21T23:51:11.814Z,29.50
2018-02-21T23:53:38.496Z,29.80
2018-02-21T23:56:05.153Z,26.02
2018-02-21T23:58:31.841Z,25.67
